Forside
METAR-TAF:

METAR-TAF

Lufthavne :

Emerald, Australien

Breddekreds: 23-34-03S, længdekreds: 148-10-45E, højde: 190 m

Aktuelle vejr

Denne rapport blev lavet for 1 time og 5 minutter siden, kl. 00:00 UTC
Vind 10 kt fra nordøst
Temperatur 27°C
Fugtighed 58%
Tryk 1017 hPa
Sigt 10 km eller mere

METAR: YEML 200000Z AUTO 04010KT 9999 // NCD 27/18 Q1017

Tid: 11:05 (01:05 UTC)


TAF: fraværende

Vejrobservationer og prognoser fra mere end 4000 lufthavne (METAR og TAF).

De gule og røde prikker repræsenterer de meteorologiske stationer.

Flyt musen over at se navnet på stationen.

Så klik over at se vejr observationer og prognoser.

At skifte det kort: Klik på de grønne knapper med et sort kors for at zoome ind; på den grønne knap med en bindestreg for at zoome ud; eller på de grønne pile for tilstødende kort.


METAR-TAF: